Big Bear Station Historical Data
Daily Summary for March 2, 2019 Units:  English    Metric   Both
Next Day »
Daily Weekly Monthly Yearly Custom
  High: Low: Average:
Temperature: 41.0 °F 34.5 °F 37.9 °F
Dew Point: 38.7 °F 33.2 °F 36.4 °F
Humidity: 98% 87% 94%
Wind Speed: 8.9mph 0.0mph 2.8mph
Wind Gust: -999.0mph - -
Wind- - SW
Pressure: 23.48 in 23.38 in -
Precipitation: 1.76 in    
Historical Graphs
 
 
Tabular Data for March 2, 2019
Time Temperature Dew Point Pressure Wind Wind Speed Wind Gust Humidity Rainfall Rate (Hourly)
00:01 38.7 °F 36.0 °F 23.45 in NW 6.8 mph -999.0 mph 90% 0.00 in
00:16 38.5 °F 35.5 °F 23.44 in WNW 2.7 mph -999.0 mph 89% 0.00 in
00:31 38.5 °F 35.5 °F 23.44 in WNW 2.2 mph -999.0 mph 89% 0.00 in
00:47 38.3 °F 35.1 °F 23.43 in West 2.2 mph -999.0 mph 88% 0.00 in
01:02 38.1 °F 34.9 °F 23.43 in WNW 3.2 mph -999.0 mph 88% 0.00 in
01:17 38.1 °F 34.9 °F 23.43 in West 2.7 mph -999.0 mph 88% 0.00 in
01:33 38.1 °F 34.9 °F 23.43 in Calm   -999.0 mph 88% 0.00 in
01:48 38.1 °F 34.9 °F 23.43 in Calm   -999.0 mph 88% 0.00 in
02:03 38.1 °F 35.1 °F 23.41 in Calm   -999.0 mph 89% 0.00 in
02:18 37.9 °F 35.2 °F 23.42 in Calm   -999.0 mph 90% 0.00 in
02:34 37.9 °F 34.7 °F 23.42 in Calm   -999.0 mph 88% 0.00 in
02:49 38.1 °F 34.6 °F 23.41 in Calm   -999.0 mph 87% 0.00 in
03:05 37.9 °F 34.4 °F 23.39 in Calm   -999.0 mph 87% 0.00 in
03:20 37.2 °F 34.0 °F 23.39 in SW 2.7 mph -999.0 mph 88% 0.00 in
03:35 36.7 °F 34.3 °F 23.39 in South 7.8 mph -999.0 mph 91% 0.00 in
03:50 36.3 °F 34.5 °F 23.40 in NW 5.3 mph -999.0 mph 93% 0.00 in
04:06 35.8 °F 34.0 °F 23.41 in WSW 4.2 mph -999.0 mph 93% 0.00 in
04:21 35.1 °F 33.5 °F 23.41 in Calm   -999.0 mph 94% 0.00 in
04:36 34.9 °F 33.3 °F 23.40 in Calm   -999.0 mph 94% 0.00 in
04:51 34.5 °F 33.2 °F 23.39 in Calm   -999.0 mph 95% 0.00 in
05:06 35.2 °F 34.2 °F 23.40 in Calm   -999.0 mph 96% 0.00 in
05:22 35.4 °F 34.4 °F 23.39 in Calm   -999.0 mph 96% 0.00 in
05:37 35.8 °F 35.0 °F 23.39 in Calm   -999.0 mph 97% 0.00 in
05:52 36.0 °F 35.2 °F 23.40 in Calm   -999.0 mph 97% 0.00 in
06:07 36.3 °F 35.5 °F 23.39 in SSW 5.3 mph -999.0 mph 97% 0.00 in
06:23 36.3 °F 35.5 °F 23.40 in Calm   -999.0 mph 97% 0.00 in
06:38 37.0 °F 36.5 °F 23.38 in Calm   -999.0 mph 98% 0.00 in
06:53 36.9 °F 36.4 °F 23.40 in SSW 5.3 mph -999.0 mph 98% 0.00 in
07:09 36.7 °F 36.2 °F 23.41 in SE 2.2 mph -999.0 mph 98% 0.00 in
07:24 36.3 °F 35.8 °F 23.40 in Calm   -999.0 mph 98% 0.00 in
07:39 36.7 °F 35.9 °F 23.41 in Calm   -999.0 mph 97% 0.00 in
07:54 37.0 °F 36.2 °F 23.41 in Calm   -999.0 mph 97% 0.00 in
08:10 37.6 °F 36.8 °F 23.42 in Calm   -999.0 mph 97% 0.00 in
08:25 38.1 °F 37.1 °F 23.42 in Calm   -999.0 mph 96% 0.00 in
08:40 38.7 °F 37.1 °F 23.42 in Calm   -999.0 mph 94% 0.00 in
08:55 38.7 °F 37.1 °F 23.41 in Calm   -999.0 mph 94% 0.00 in
09:11 39.0 °F 36.9 °F 23.42 in SE 1.7 mph -999.0 mph 92% 0.00 in
09:26 39.4 °F 37.3 °F 23.42 in North 1.7 mph -999.0 mph 92% 0.00 in
09:41 39.7 °F 37.6 °F 23.41 in SSW 3.7 mph -999.0 mph 92% 0.00 in
09:56 40.3 °F 37.9 °F 23.41 in Calm   -999.0 mph 91% 0.00 in
10:11 40.6 °F 38.2 °F 23.40 in South 3.7 mph -999.0 mph 91% 0.00 in
10:27 40.1 °F 38.0 °F 23.40 in SSW 4.2 mph -999.0 mph 92% 0.00 in
10:42 39.9 °F 37.8 °F 23.40 in SW 3.7 mph -999.0 mph 92% 0.00 in
10:58 40.6 °F 38.2 °F 23.40 in South 4.2 mph -999.0 mph 91% 0.00 in
11:13 40.1 °F 38.5 °F 23.40 in NNE 5.3 mph -999.0 mph 94% 0.00 in
11:28 40.6 °F 38.2 °F 23.41 in SW 2.7 mph -999.0 mph 91% 0.00 in
11:44 40.5 °F 38.4 °F 23.41 in Calm   -999.0 mph 92% 0.00 in
11:59 40.1 °F 38.0 °F 23.41 in SSW 4.7 mph -999.0 mph 92% 0.00 in
12:14 40.6 °F 38.7 °F 23.41 in SE 5.3 mph -999.0 mph 93% 0.00 in
12:30 41.0 °F 38.6 °F 23.40 in SSE 2.2 mph -999.0 mph 91% 0.00 in
12:46 40.3 °F 38.2 °F 23.40 in SSW 1.1 mph -999.0 mph 92% 0.00 in
13:01 40.1 °F 38.2 °F 23.39 in South 4.2 mph -999.0 mph 93% 0.00 in
13:16 40.3 °F 38.4 °F 23.38 in SSW 7.3 mph -999.0 mph 93% 0.00 in
13:32 40.1 °F 38.2 °F 23.38 in South 4.7 mph -999.0 mph 93% 0.00 in
13:47 39.2 °F 37.6 °F 23.39 in SSE 6.8 mph -999.0 mph 94% 0.00 in
14:02 39.2 °F 37.6 °F 23.40 in NE 3.2 mph -999.0 mph 94% 0.00 in
14:17 38.5 °F 36.9 °F 23.41 in NE 3.7 mph -999.0 mph 94% 0.00 in
14:32 38.3 °F 37.0 °F 23.41 in South 5.3 mph -999.0 mph 95% 0.00 in
14:48 37.9 °F 36.9 °F 23.41 in ESE 1.7 mph -999.0 mph 96% 0.00 in
15:04 37.8 °F 36.8 °F 23.41 in Calm   -999.0 mph 96% 0.00 in
15:19 37.9 °F 36.6 °F 23.41 in West 3.2 mph -999.0 mph 95% 0.00 in
15:34 37.6 °F 36.6 °F 23.42 in SE 5.3 mph -999.0 mph 96% 0.00 in
15:49 37.6 °F 36.6 °F 23.42 in South 2.7 mph -999.0 mph 96% 0.00 in
16:05 37.4 °F 36.6 °F 23.41 in SSW 5.3 mph -999.0 mph 97% 0.00 in
16:20 37.9 °F 37.1 °F 23.42 in WSW 2.7 mph -999.0 mph 97% 0.00 in
16:35 37.8 °F 36.8 °F 23.42 in SW 2.7 mph -999.0 mph 96% 0.00 in
16:50 37.8 °F 36.8 °F 23.42 in NW 2.2 mph -999.0 mph 96% 0.00 in
17:06 37.9 °F 36.9 °F 23.42 in South 4.2 mph -999.0 mph 96% 0.00 in
17:21 37.8 °F 36.8 °F 23.42 in WSW 1.7 mph -999.0 mph 96% 0.00 in
17:36 37.6 °F 36.6 °F 23.42 in West 2.7 mph -999.0 mph 96% 0.00 in
17:51 37.6 °F 36.8 °F 23.43 in SSE 3.2 mph -999.0 mph 97% 0.00 in
18:06 37.4 °F 36.6 °F 23.44 in NW 6.3 mph -999.0 mph 97% 0.00 in
18:22 37.4 °F 36.6 °F 23.44 in West 4.7 mph -999.0 mph 97% 0.00 in
18:37 37.2 °F 36.4 °F 23.44 in NW 5.8 mph -999.0 mph 97% 0.00 in
18:53 37.0 °F 36.2 °F 23.44 in SSE 2.2 mph -999.0 mph 97% 0.00 in
19:08 37.6 °F 36.8 °F 23.44 in NW 3.7 mph -999.0 mph 97% 0.00 in
19:23 38.1 °F 37.6 °F 23.43 in WNW 6.8 mph -999.0 mph 98% 0.00 in
19:39 37.8 °F 37.3 °F 23.44 in NNW 7.8 mph -999.0 mph 98% 0.00 in
19:54 37.0 °F 36.2 °F 23.45 in SSE 1.7 mph -999.0 mph 97% 0.00 in
20:09 37.4 °F 36.9 °F 23.45 in NW 4.7 mph -999.0 mph 98% 0.00 in
20:24 37.2 °F 36.7 °F 23.44 in NW 5.3 mph -999.0 mph 98% 0.00 in
20:39 37.0 °F 36.2 °F 23.46 in NNW 6.3 mph -999.0 mph 97% 0.00 in
20:55 36.7 °F 35.9 °F 23.47 in SSW 2.2 mph -999.0 mph 97% 0.00 in
21:10 36.9 °F 36.1 °F 23.46 in SW 1.1 mph -999.0 mph 97% 0.00 in
21:25 36.9 °F 36.1 °F 23.47 in WNW 2.7 mph -999.0 mph 97% 0.00 in
21:40 36.9 °F 36.1 °F 23.46 in NE 1.7 mph -999.0 mph 97% 0.00 in
21:55 37.6 °F 37.1 °F 23.48 in Calm   -999.0 mph 98% 0.00 in
22:11 37.8 °F 37.3 °F 23.47 in Calm   -999.0 mph 98% 0.00 in
22:26 37.2 °F 36.7 °F 23.47 in NW 2.7 mph -999.0 mph 98% 0.00 in
22:41 37.2 °F 36.7 °F 23.47 in North 3.7 mph -999.0 mph 98% 0.00 in
23:23 37.0 °F 36.5 °F 23.47 in North 8.9 mph -999.0 mph 98% 0.00 in
23:39 36.9 °F 36.4 °F 23.45 in West 4.2 mph -999.0 mph 98% 0.00 in
23:54 36.5 °F 35.7 °F 23.46 in WNW 6.8 mph -999.0 mph 97% 0.00 in
Big Bear CA Weather